MROC/SJO METAR and TAF weather

Enter ICAO airport designator
Station Type Date Time Source
MROC METAR 2019/10/21 02:00 UTC NOAA

MROC 210200Z 00000KT 9000 -RA FEW020 BKN060 20/20 A3007 NOSIG


Station Type Date Time Source
MROC Decoded METAR 2019/10/21 02:00 UTC NOAA

Juan Santamaria, Costa Rica (MROC) 10-00N 084-13W 939M
Oct 20, 2019 - 10:00 PM EDT / 2019.10.21 0200 UTC
Wind: Calm:0
Visibility: 5 mile(s):0
Sky conditions: mostly cloudy
Weather: light rain
Temperature: 68 F (20 C)
Dew Point: 68 F (20 C)
Relative Humidity: 100%
Pressure (altimeter): 30.07 in. Hg (1018 hPa)
ob: MROC 210200Z 00000KT 9000 -RA FEW020 BKN060 20/20 A3007 NOSIG
cycle: 2

Station Type Date Time Source
MROC TAF 2019/10/20 18:06 UTC NOAA

TAF MROC 201700Z 2018/2118 26007KT 9999 FEW045 SCT250 TX29/2118Z TN17/2111Z
TEMPO 2019/2023 3000 TSRA SCT015CB OVC030
TEMPO 2100/2104 VRB02KT 3000 RA BR BKN010
BECMG 2105/2107 10004KT
BECMG 2113/2115 27007KT

Example: see airport list